createdAt,value
2017-06-03T00:10:26.000Z,24.2
2017-06-03T00:27:18.000Z,24.2
2017-06-03T00:44:10.000Z,24.2
2017-06-03T01:01:02.000Z,24.2
2017-06-03T01:17:53.000Z,23.8
2017-06-03T01:34:45.000Z,23.8
2017-06-03T01:51:36.000Z,23.8
2017-06-03T02:08:27.000Z,23.8
2017-06-03T02:25:18.000Z,23.8
2017-06-03T02:42:11.000Z,23.8
2017-06-03T02:59:02.000Z,23.8
2017-06-03T03:15:53.000Z,23.8
2017-06-03T03:32:44.000Z,23.8
2017-06-03T03:49:36.000Z,23.8
2017-06-03T04:06:27.000Z,23.5
2017-06-03T04:23:18.000Z,23.5
2017-06-03T04:40:09.000Z,23.5
2017-06-03T04:57:01.000Z,23.5
2017-06-03T05:13:51.000Z,23.5
2017-06-03T05:30:42.000Z,23.5
2017-06-03T05:47:34.000Z,23.5
2017-06-03T06:04:24.000Z,23.5
2017-06-03T06:21:15.000Z,23.5
2017-06-03T06:38:07.000Z,23.5
2017-06-03T06:54:58.000Z,23.8
2017-06-03T07:11:49.000Z,23.8
2017-06-03T07:28:41.000Z,23.8
2017-06-03T07:45:33.000Z,23.8
2017-06-03T08:02:25.000Z,23.8
2017-06-03T08:19:17.000Z,23.8
2017-06-03T08:36:08.000Z,24.2
2017-06-03T08:53:01.000Z,24.5
2017-06-03T09:09:53.000Z,24.8
2017-06-03T09:26:45.000Z,25.1
2017-06-03T09:43:38.000Z,25.4
2017-06-03T10:00:32.000Z,25.4
2017-06-03T10:17:25.000Z,25.4
2017-06-03T10:34:18.000Z,25.8
2017-06-03T10:51:12.000Z,25.8
2017-06-03T11:08:05.000Z,25.8
2017-06-03T11:24:59.000Z,26.1
2017-06-03T11:41:53.000Z,26.1
2017-06-03T11:58:48.000Z,26.4
2017-06-03T12:15:43.000Z,26.4
2017-06-03T12:32:37.000Z,26.4
2017-06-03T12:49:32.000Z,26.4
2017-06-03T12:54:37.000Z,26.4
2017-06-03T13:01:23.000Z,26.4
2017-06-03T13:04:46.000Z,26.4
2017-06-03T13:21:40.000Z,26.1
2017-06-03T13:38:34.000Z,26.1
2017-06-03T13:55:28.000Z,26.4
2017-06-03T14:12:23.000Z,26.1
2017-06-03T14:29:17.000Z,26.1
2017-06-03T14:46:11.000Z,26.1
2017-06-03T15:03:05.000Z,26.1
2017-06-03T15:19:59.000Z,26.1
2017-06-03T15:36:53.000Z,26.1
2017-06-03T15:53:47.000Z,26.4
2017-06-03T16:10:42.000Z,26.4
2017-06-03T16:27:36.000Z,26.1
2017-06-03T16:44:30.000Z,26.1
2017-06-03T17:01:25.000Z,25.8
2017-06-03T17:18:18.000Z,26.1
2017-06-03T17:35:12.000Z,25.8
2017-06-03T17:52:06.000Z,25.4
2017-06-03T18:09:00.000Z,25.4
2017-06-03T18:25:53.000Z,25.4
2017-06-03T18:42:47.000Z,25.1
2017-06-03T18:59:40.000Z,25.4
2017-06-03T19:16:33.000Z,25.1
2017-06-03T19:33:26.000Z,25.1
2017-06-03T19:50:19.000Z,24.8
2017-06-03T20:07:13.000Z,24.8
2017-06-03T20:24:06.000Z,24.8
2017-06-03T20:40:58.000Z,24.8
2017-06-03T20:57:51.000Z,24.8
2017-06-03T21:14:45.000Z,24.8
2017-06-03T21:31:38.000Z,24.8
2017-06-03T21:48:30.000Z,24.8
2017-06-03T22:05:22.000Z,24.8
2017-06-03T22:22:14.000Z,24.5
2017-06-03T22:39:07.000Z,24.5
2017-06-03T22:55:59.000Z,24.5
2017-06-03T23:12:51.000Z,24.5
2017-06-03T23:29:43.000Z,24.5
2017-06-03T23:46:35.000Z,24.5
